Time;durP1;ratioP1;P1;durP2;ratioP2;P2;SDS_P1;SDS_P2;PMS_P1;PMS_P2;Temp;Humidity;BMP_temperature;BMP_pressure;BME280_temperature;BME280_humidity;BME280_pressure;Samples;Min_cycle;Max_cycle;Signal;HPM_P1;HPM_P2
2023/01/11 00:00:21;;;;;;;3.40;1.15;;;;;;;3.85;96.16;98421.84;4226602;27;20445;-72
2023/01/11 00:02:22;;;;;;;1.60;0.93;;;;;;;3.97;95.76;98398.41;4222168;27;20123;-72
2023/01/11 00:04:28;;;;;;;1.95;0.98;;;;;;;3.94;95.71;98413.56;4223725;27;20035;-72
2023/01/11 00:06:29;;;;;;;3.90;1.33;;;;;;;3.88;95.53;98398.47;4225336;27;20215;-72
2023/01/11 00:08:30;;;;;;;4.40;1.23;;;;;;;3.86;95.85;98400.75;4223500;27;20490;-72
2023/01/11 00:10:32;;;;;;;2.33;1.40;;;;;;;3.86;95.85;98390.59;4227506;27;20039;-72
2023/01/11 00:12:32;;;;;;;5.60;1.10;;;;;;;3.88;95.51;98388.31;4218982;28;20051;-72
2023/01/11 00:14:32;;;;;;;2.60;1.33;;;;;;;3.85;95.55;98396.41;4226453;27;20165;-72
2023/01/11 00:16:33;;;;;;;3.40;1.02;;;;;;;3.80;96.05;98381.00;4225672;27;20119;-72
2023/01/11 00:18:34;;;;;;;1.83;0.98;;;;;;;3.88;96.18;98399.28;4221862;27;20436;-72
2023/01/11 00:20:38;;;;;;;3.63;1.02;;;;;;;3.88;95.89;98388.31;4225285;27;20062;-72
2023/01/11 00:22:38;;;;;;;3.83;1.48;;;;;;;3.91;95.63;98406.03;4224901;27;20137;-72
2023/01/11 00:24:39;;;;;;;1.23;1.05;;;;;;;3.86;96.30;98395.28;4224948;27;20526;-72
2023/01/11 00:26:39;;;;;;;3.50;1.13;;;;;;;3.86;96.55;98390.59;4225764;27;20047;-72
2023/01/11 00:28:39;;;;;;;1.92;1.02;;;;;;;3.85;95.97;98386.28;4224845;27;20046;-72
2023/01/11 00:30:40;;;;;;;2.20;1.38;;;;;;;3.90;95.54;98388.00;4225722;27;20047;-72
2023/01/11 00:32:40;;;;;;;2.00;1.23;;;;;;;3.90;95.99;98385.28;4222824;27;20047;-72
2023/01/11 00:34:40;;;;;;;3.22;1.20;;;;;;;3.88;96.48;98369.16;4227319;27;20292;-72
2023/01/11 00:36:41;;;;;;;1.48;1.10;;;;;;;3.92;96.87;98367.38;4222117;27;20471;-72
2023/01/11 00:38:50;;;;;;;2.03;0.90;;;;;;;4.06;96.65;98379.97;4223983;27;20556;-71
2023/01/11 00:40:50;;;;;;;2.95;1.20;;;;;;;4.00;96.50;98376.66;4225206;27;20048;-72
2023/01/11 00:49:47;;;;;;;2.70;1.67;;;;;;;3.98;96.57;98361.69;4226074;27;20626;-71
2023/01/11 00:51:47;;;;;;;4.20;1.30;;;;;;;3.96;97.09;98362.00;4224327;27;20051;-71
2023/01/11 00:53:49;;;;;;;4.63;1.20;;;;;;;3.87;97.30;98364.84;4224905;27;20047;-72
2023/01/11 00:55:50;;;;;;;3.42;1.27;;;;;;;3.87;97.50;98356.63;4222796;27;20061;-72
2023/01/11 00:57:50;;;;;;;4.82;1.38;;;;;;;3.94;96.92;98356.88;4226040;27;20468;-72
2023/01/11 00:59:50;;;;;;;2.40;1.20;;;;;;;3.93;97.33;98366.22;4224407;27;20047;-71
2023/01/11 01:01:51;;;;;;;3.38;1.20;;;;;;;3.92;97.77;98352.88;4224387;27;20046;-72
2023/01/11 01:03:51;;;;;;;4.60;1.60;;;;;;;3.97;97.84;98343.66;4222659;27;20434;-71
2023/01/11 01:05:54;;;;;;;3.55;1.58;;;;;;;3.98;97.03;98339.81;4223351;27;20051;-72
2023/01/11 01:07:55;;;;;;;1.95;1.23;;;;;;;3.99;97.78;98347.66;4222396;27;20115;-72
2023/01/11 01:09:55;;;;;;;4.72;1.60;;;;;;;3.95;97.67;98349.47;4224092;27;20090;-71
2023/01/11 01:11:56;;;;;;;2.33;1.50;;;;;;;3.93;97.59;98341.59;4223811;27;20528;-72
2023/01/11 01:16:14;;;;;;;4.53;2.05;;;;;;;3.88;98.38;98349.22;4222505;27;20046;-72
2023/01/11 01:18:15;;;;;;;6.63;2.05;;;;;;;3.90;97.98;98333.28;4226228;27;20020;-72
2023/01/11 01:20:15;;;;;;;2.97;1.40;;;;;;;3.89;98.22;98342.63;4221930;27;20031;-72
2023/01/11 01:22:16;;;;;;;3.38;1.40;;;;;;;3.94;97.92;98318.56;4226411;27;20026;-71
2023/01/11 01:24:16;;;;;;;2.00;1.30;;;;;;;3.95;97.89;98327.56;4222056;27;20556;-72
2023/01/11 01:26:16;;;;;;;3.28;1.60;;;;;;;3.90;98.47;98323.13;4221896;27;20528;-72
2023/01/11 01:28:20;;;;;;;2.05;1.20;;;;;;;3.87;98.54;98321.03;4222803;27;20101;-72
2023/01/11 01:30:21;;;;;;;4.38;1.50;;;;;;;3.94;98.11;98325.97;4225100;27;20053;-72
2023/01/11 01:32:21;;;;;;;3.70;1.33;;;;;;;3.97;97.59;98327.22;4226284;27;20482;-72
2023/01/11 01:34:22;;;;;;;3.30;1.42;;;;;;;3.92;97.89;98309.09;4223080;27;20101;-72
2023/01/11 01:36:22;;;;;;;2.33;1.40;;;;;;;3.96;97.85;98315.47;4225296;27;20143;-71
2023/01/11 01:38:22;;;;;;;1.67;1.42;;;;;;;3.91;97.62;98319.25;4224518;27;20450;-71
2023/01/11 01:40:23;;;;;;;3.10;1.58;;;;;;;3.91;98.46;98319.25;4223125;27;20085;-71
2023/01/11 01:42:24;;;;;;;2.45;1.35;;;;;;;3.89;97.82;98307.03;4225375;27;20038;-71
2023/01/11 01:45:02;;;;;;;4.93;1.70;;;;;;;3.90;98.53;98303.16;4225980;27;20130;-72
2023/01/11 01:47:03;;;;;;;2.50;1.50;;;;;;;3.92;98.04;98284.47;4226752;27;20031;-72
2023/01/11 01:49:14;;;;;;;3.47;1.88;;;;;;;3.99;97.81;98273.75;4221193;27;20135;-71
2023/01/11 01:51:21;;;;;;;5.30;1.80;;;;;;;3.96;98.09;98271.69;4221455;27;20040;-72
2023/01/11 01:53:42;;;;;;;2.38;1.70;;;;;;;3.88;98.56;98276.09;4224237;27;20036;-72
2023/01/11 01:55:47;;;;;;;5.45;1.88;;;;;;;3.95;98.50;98267.34;4224769;27;20058;-72
2023/01/11 01:57:49;;;;;;;3.22;1.30;;;;;;;3.93;97.98;98264.16;4222428;27;20074;-72
2023/01/11 01:59:51;;;;;;;3.83;1.40;;;;;;;3.92;98.57;98274.31;4222731;27;20425;-71
2023/01/11 02:01:52;;;;;;;4.35;1.70;;;;;;;3.94;99.10;98273.97;4224153;27;20048;-71
2023/01/11 02:03:54;;;;;;;3.63;1.55;;;;;;;3.91;98.99;98269.19;4220766;27;20226;-72
2023/01/11 02:05:55;;;;;;;3.92;1.60;;;;;;;3.94;99.14;98274.75;4224232;27;20359;-72
2023/01/11 02:07:59;;;;;;;4.63;1.67;;;;;;;3.93;99.34;98275.91;4223707;27;20423;-71
2023/01/11 02:10:07;;;;;;;3.30;1.45;;;;;;;3.92;99.81;98284.47;4224613;27;20051;-72
2023/01/11 02:12:08;;;;;;;2.35;1.50;;;;;;;3.92;100.00;98284.47;4220394;27;20047;-72
2023/01/11 02:14:13;;;;;;;2.95;1.55;;;;;;;3.93;99.81;98275.09;4222596;27;20066;-72
2023/01/11 02:16:14;;;;;;;3.13;1.48;;;;;;;3.98;99.58;98266.69;4221765;27;20133;-72
2023/01/11 02:18:14;;;;;;;3.35;1.77;;;;;;;3.96;99.47;98260.72;4223500;27;20031;-71
2023/01/11 02:20:33;;;;;;;3.47;1.52;;;;;;;3.98;99.82;98265.88;4234383;27;20038;-72
2023/01/11 02:23:15;;;;;;;2.58;1.27;;;;;;;3.99;99.79;98259.28;4233874;27;20039;-72
2023/01/11 02:25:24;;;;;;;2.28;1.45;;;;;;;4.02;99.53;98253.91;4223553;27;20072;-72
2023/01/11 02:27:54;;;;;;;3.25;1.20;;;;;;;3.98;100.00;98252.19;4235951;27;20329;-72
2023/01/11 02:29:57;;;;;;;2.60;1.38;;;;;;;3.98;100.00;98239.31;4218824;27;20387;-72
2023/01/11 02:32:26;;;;;;;2.00;1.45;;;;;;;3.99;100.00;98240.13;4232715;27;20051;-72
2023/01/11 02:34:36;;;;;;;8.68;1.83;;;;;;;4.03;100.00;98246.50;4219495;27;20126;-71
2023/01/11 02:36:55;;;;;;;2.15;1.55;;;;;;;4.07;99.67;98231.78;4220708;27;20062;-72
2023/01/11 02:39:10;;;;;;;4.07;1.65;;;;;;;4.17;100.00;98239.56;4224071;27;20413;-72
2023/01/11 02:41:21;;;;;;;1.80;1.17;;;;;;;4.14;100.00;98234.78;4223465;27;20470;-71
2023/01/11 02:46:06;;;;;;;1.77;1.23;;;;;;;4.17;100.00;98233.28;4223736;27;20398;-71
2023/01/11 02:48:27;;;;;;;2.15;1.35;;;;;;;4.17;100.00;98245.03;4222354;27;20072;-72
2023/01/11 02:50:48;;;;;;;1.30;1.17;;;;;;;4.27;100.00;98235.56;4219023;27;20490;-72
2023/01/11 02:52:58;;;;;;;2.75;1.17;;;;;;;4.33;100.00;98227.91;4230510;27;20471;-72
2023/01/11 02:55:01;;;;;;;3.30;1.40;;;;;;;4.30;100.00;98245.81;4227068;27;20040;-71
2023/01/11 02:57:03;;;;;;;;;;;;;;;4.31;100.00;98235.69;4219836;27;20040;-72
2023/01/11 02:59:06;;;;;;;2.05;1.58;;;;;;;4.30;99.85;98236.81;4220092;27;20103;-72
2023/01/11 03:01:07;;;;;;;1.83;1.20;;;;;;;4.27;99.65;98238.28;4230368;27;20047;-72
2023/01/11 03:03:20;;;;;;;2.60;1.17;;;;;;;4.24;99.92;98236.25;4234679;27;20035;-72
2023/01/11 03:05:21;;;;;;;1.80;1.38;;;;;;;4.23;100.00;98245.59;4230305;27;20051;-72
2023/01/11 03:07:40;;;;;;;2.58;1.52;;;;;;;4.26;100.00;98244.91;4223117;27;20063;-72
2023/01/11 03:10:04;;;;;;;2.75;1.20;;;;;;;4.29;100.00;98225.03;4219759;27;20453;-71
2023/01/11 03:12:53;;;;;;;1.70;1.30;;;;;;;4.35;100.00;98222.88;4223649;27;20054;-72
2023/01/11 03:15:32;;;;;;;2.08;1.23;;;;;;;4.34;100.00;98213.88;4218955;27;20173;-72
2023/01/11 03:17:57;;;;;;;1.90;1.20;;;;;;;4.34;100.00;98221.28;4202890;28;20101;-71
2023/01/11 03:20:07;;;;;;;2.50;1.23;;;;;;;4.42;100.00;98220.38;4219015;27;20122;-72
2023/01/11 03:22:38;;;;;;;3.78;1.50;;;;;;;4.41;100.00;98219.59;4218188;27;20043;-71
2023/01/11 03:24:57;;;;;;;1.40;1.20;;;;;;;4.41;100.00;98205.09;4227609;27;20486;-72
2023/01/11 03:27:09;;;;;;;1.80;1.30;;;;;;;4.39;100.00;98201.91;4225496;27;20542;-72
2023/01/11 03:29:10;;;;;;;1.90;1.10;;;;;;;4.38;100.00;98208.50;4231929;27;20134;-72
2023/01/11 03:31:21;;;;;;;3.78;1.80;;;;;;;4.39;100.00;98210.91;4224625;27;20113;-72
2023/01/11 03:33:25;;;;;;;2.78;1.40;;;;;;;4.38;100.00;98203.03;4230447;27;20035;-72
2023/01/11 03:35:32;;;;;;;1.48;1.30;;;;;;;4.36;100.00;98195.16;4233603;27;20163;-72
2023/01/11 03:37:38;;;;;;;3.38;1.60;;;;;;;4.50;100.00;98192.84;4228062;27;20039;-72
2023/01/11 03:39:47;;;;;;;1.83;1.20;;;;;;;4.51;100.00;98197.19;4231872;27;20747;-72
2023/01/11 03:41:50;;;;;;;4.05;1.20;;;;;;;4.45;100.00;98195.03;4222245;27;20184;-72
2023/01/11 03:43:53;;;;;;;1.65;1.27;;;;;;;4.38;100.00;98187.38;4221980;27;20417;-72
2023/01/11 03:45:56;;;;;;;;;;;;;;;4.38;100.00;98200.28;4230872;27;20407;-72
2023/01/11 03:48:00;;;;;;;1.60;1.30;;;;;;;4.33;100.00;98193.09;4232441;27;20340;-72
2023/01/11 03:50:05;;;;;;;2.53;1.40;;;;;;;4.29;100.00;98188.66;4230129;27;20547;-72
2023/01/11 03:52:11;;;;;;;2.72;1.30;;;;;;;4.27;100.00;98197.22;4221564;27;20036;-72
2023/01/11 03:54:15;;;;;;;1.63;1.52;;;;;;;4.25;100.00;98185.81;4221216;27;20050;-72
2023/01/11 03:56:20;;;;;;;2.63;1.42;;;;;;;4.22;100.00;98192.78;4226147;27;20067;-72
2023/01/11 03:58:21;;;;;;;3.22;1.60;;;;;;;4.25;100.00;98198.72;4224029;27;20083;-72
2023/01/11 04:00:22;;;;;;;1.40;1.10;;;;;;;4.28;100.00;98195.28;4230720;27;20466;-72
2023/01/11 04:02:32;;;;;;;2.35;1.40;;;;;;;4.28;100.00;98189.78;4223671;27;20131;-72
2023/01/11 04:04:32;;;;;;;1.55;1.27;;;;;;;4.24;100.00;98189.69;4223551;27;20040;-72
2023/01/11 04:06:35;;;;;;;1.83;1.25;;;;;;;4.25;100.00;98196.75;4222637;27;20039;-71
2023/01/11 04:08:35;;;;;;;1.15;1.00;;;;;;;4.25;100.00;98190.50;4221140;27;20075;-72
2023/01/11 04:10:36;;;;;;;2.15;1.25;;;;;;;4.25;100.00;98185.00;4222218;27;20043;-72
2023/01/11 04:12:37;;;;;;;2.72;1.10;;;;;;;4.27;100.00;98191.72;4228610;27;20508;-72
2023/01/11 04:14:37;;;;;;;2.80;1.13;;;;;;;4.29;100.00;98194.91;4222858;27;20127;-72
2023/01/11 04:16:37;;;;;;;1.63;1.30;;;;;;;4.30;100.00;98196.50;4224673;27;20331;-72
2023/01/11 04:18:38;;;;;;;2.90;1.30;;;;;;;4.31;100.00;98180.91;4228710;27;20413;-72
2023/01/11 04:20:39;;;;;;;2.60;1.40;;;;;;;4.36;100.00;98177.91;4227753;27;20305;-72
2023/01/11 04:22:40;;;;;;;3.55;1.20;;;;;;;4.32;100.00;98177.81;4234735;27;20038;-72
2023/01/11 04:24:40;;;;;;;1.55;1.20;;;;;;;4.36;100.00;98166.97;4222818;27;20039;-72
2023/01/11 04:26:40;;;;;;;2.10;1.20;;;;;;;4.35;100.00;98166.16;4221838;27;20315;-72
2023/01/11 04:28:41;;;;;;;2.88;1.20;;;;;;;4.34;100.00;98159.09;4220227;27;20501;-72
2023/01/11 04:30:41;;;;;;;1.35;1.05;;;;;;;4.36;100.00;98151.31;4221025;27;20036;-72
2023/01/11 04:32:42;;;;;;;2.72;1.45;;;;;;;4.38;100.00;98143.56;4219226;27;20076;-72
2023/01/11 04:34:42;;;;;;;1.50;0.95;;;;;;;4.44;100.00;98157.81;4220576;27;20471;-72
2023/01/11 04:36:43;;;;;;;2.72;1.10;;;;;;;4.46;100.00;98150.84;4224844;27;20428;-72
2023/01/11 04:38:43;;;;;;;2.22;1.02;;;;;;;4.47;100.00;98154.41;4227306;27;20038;-72
2023/01/11 04:40:43;;;;;;;1.35;1.00;;;;;;;4.45;100.00;98154.72;4225176;27;20475;-72
2023/01/11 04:42:45;;;;;;;1.63;1.08;;;;;;;4.51;100.00;98153.34;4225511;27;20032;-72
2023/01/11 04:44:48;;;;;;;2.05;1.10;;;;;;;4.55;100.00;98147.16;4218063;27;20617;-72
2023/01/11 04:46:48;;;;;;;;;;;;;;;4.49;100.00;98136.47;4218050;27;20052;-72
2023/01/11 04:48:48;;;;;;;2.03;1.10;;;;;;;4.47;100.00;98135.22;4216565;27;20291;-72
2023/01/11 04:50:49;;;;;;;1.23;0.90;;;;;;;4.48;100.00;98134.88;4228145;27;20796;-72
2023/01/11 04:52:50;;;;;;;2.95;1.00;;;;;;;4.47;100.00;98144.25;4226298;27;20409;-72
2023/01/11 04:54:51;;;;;;;1.70;1.08;;;;;;;4.49;100.00;98130.19;4221814;27;20404;-72
2023/01/11 04:56:51;;;;;;;2.47;0.95;;;;;;;4.57;100.00;98142.16;4217700;27;20047;-72
2023/01/11 04:58:52;;;;;;;2.85;1.17;;;;;;;4.71;100.00;98128.84;4218740;27;20543;-72
2023/01/11 05:00:53;;;;;;;0.95;0.80;;;;;;;4.73;100.00;98134.81;4220233;27;20067;-72
2023/01/11 05:02:53;;;;;;;1.15;0.98;;;;;;;4.71;100.00;98139.81;4217284;27;20411;-72
2023/01/11 05:04:53;;;;;;;0.80;0.80;;;;;;;4.67;100.00;98131.50;4224943;27;20383;-72
2023/01/11 05:06:54;;;;;;;1.35;1.05;;;;;;;4.65;100.00;98125.59;4227849;27;20055;-72
2023/01/11 05:08:54;;;;;;;0.80;0.80;;;;;;;4.69;100.00;98125.69;4225808;27;20043;-72
2023/01/11 05:10:57;;;;;;;1.00;0.90;;;;;;;4.75;100.00;98116.88;4225617;27;20043;-72
2023/01/11 05:12:58;;;;;;;0.70;0.70;;;;;;;4.84;100.00;98127.69;4223188;27;20051;-72
2023/01/11 05:14:58;;;;;;;0.93;0.88;;;;;;;4.79;100.00;98134.19;4217910;27;20415;-72
2023/01/11 05:16:58;;;;;;;1.10;1.00;;;;;;;4.81;100.00;98131.13;4214725;27;20052;-72
2023/01/11 05:19:00;;;;;;;1.70;1.30;;;;;;;4.81;100.00;98138.56;4215612;27;20048;-72
2023/01/11 05:21:01;;;;;;;1.38;1.25;;;;;;;4.79;100.00;98136.13;4215722;27;20418;-72
2023/01/11 05:23:01;;;;;;;1.45;1.23;;;;;;;4.79;100.00;98136.94;4214985;27;20071;-72
2023/01/11 05:25:02;;;;;;;0.90;0.90;;;;;;;4.79;100.00;98138.88;4216152;27;20044;-72
2023/01/11 05:27:03;;;;;;;1.10;1.00;;;;;;;4.73;100.00;98102.72;4214192;27;20164;-72
2023/01/11 05:29:06;;;;;;;0.98;0.90;;;;;;;4.75;100.00;98099.63;4214752;27;20372;-72
2023/01/11 05:31:06;;;;;;;0.90;0.90;;;;;;;4.79;100.00;98130.66;4211037;27;20048;-72
2023/01/11 05:33:07;;;;;;;1.30;0.90;;;;;;;4.79;100.00;98116.97;4215992;27;20082;-72
2023/01/11 05:35:10;;;;;;;0.88;0.80;;;;;;;4.82;100.00;98110.78;4220768;27;20039;-72
2023/01/11 05:37:10;;;;;;;0.93;0.82;;;;;;;4.90;100.00;98117.28;4218432;27;20062;-72
2023/01/11 05:39:13;;;;;;;0.98;0.80;;;;;;;4.91;100.00;98116.13;4217133;27;20046;-72
2023/01/11 05:41:14;;;;;;;;;;;;;;;4.88;100.00;98114.88;4225628;27;20042;-72
2023/01/11 05:43:14;;;;;;;0.88;0.85;;;;;;;4.84;100.00;98108.50;4226803;27;19919;-72
2023/01/11 05:45:31;;;;;;;1.10;1.00;;;;;;;4.85;100.00;98115.56;4219228;27;20043;-72
2023/01/11 05:47:31;;;;;;;1.63;0.90;;;;;;;4.87;100.00;98107.00;4221266;27;20554;-72
2023/01/11 05:49:32;;;;;;;0.80;0.70;;;;;;;4.91;100.00;98107.91;4222468;27;20131;-72
2023/01/11 05:51:33;;;;;;;1.05;0.90;;;;;;;4.90;100.00;98112.59;4222593;27;20504;-72
2023/01/11 05:53:33;;;;;;;1.00;0.80;;;;;;;4.89;100.00;98096.50;4220936;27;20523;-72
2023/01/11 05:55:34;;;;;;;1.45;0.95;;;;;;;4.84;100.00;98097.53;4218751;27;20144;-72
2023/01/11 05:57:34;;;;;;;1.08;0.90;;;;;;;4.85;100.00;98099.13;4219469;27;20051;-72
2023/01/11 05:59:34;;;;;;;2.35;0.95;;;;;;;4.83;100.00;98103.38;4224476;27;20036;-72
2023/01/11 06:01:35;;;;;;;0.80;0.80;;;;;;;4.78;100.00;98098.91;4166940;27;20051;-72
2023/01/11 06:03:35;;;;;;;0.70;0.70;;;;;;;4.79;100.00;98095.81;4224999;27;20452;-72
2023/01/11 06:05:37;;;;;;;1.00;0.90;;;;;;;4.75;100.00;98089.47;4219862;27;20044;-72
2023/01/11 06:07:38;;;;;;;0.90;0.73;;;;;;;4.79;100.00;98095.81;4226032;27;20490;-72
2023/01/11 06:09:39;;;;;;;0.98;0.88;;;;;;;4.76;100.00;98101.22;4218001;27;20039;-72
2023/01/11 06:11:39;;;;;;;1.60;1.02;;;;;;;4.76;100.00;98093.00;4226728;27;20084;-72
2023/01/11 06:13:40;;;;;;;2.05;1.30;;;;;;;4.72;100.00;98101.13;4217140;27;20078;-72
2023/01/11 06:15:40;;;;;;;1.40;1.10;;;;;;;4.70;100.00;98086.16;4223569;27;20237;-72
2023/01/11 06:17:41;;;;;;;1.70;0.73;;;;;;;4.71;100.00;98087.75;4218221;27;20066;-72
2023/01/11 06:19:41;;;;;;;1.23;0.93;;;;;;;4.70;100.00;98086.97;4218533;27;20036;-72
2023/01/11 06:21:41;;;;;;;0.70;0.70;;;;;;;4.67;100.00;98086.88;4229156;27;20139;-72
2023/01/11 06:23:44;;;;;;;1.13;0.65;;;;;;;4.69;100.00;98079.88;4230888;27;20039;-72
2023/01/11 06:25:45;;;;;;;0.70;0.70;;;;;;;4.74;100.00;98081.59;4218602;27;20361;-72
2023/01/11 06:27:45;;;;;;;0.73;0.73;;;;;;;4.74;100.00;98082.38;4218479;27;20550;-72
2023/01/11 06:29:45;;;;;;;1.55;0.80;;;;;;;4.71;100.00;98077.59;4220249;27;20440;-72
2023/01/11 06:31:47;;;;;;;0.80;0.80;;;;;;;4.71;100.00;98082.28;4226561;27;20046;-72
2023/01/11 06:33:47;;;;;;;0.95;0.70;;;;;;;4.71;100.00;98082.28;4221530;27;20039;-72
2023/01/11 06:35:47;;;;;;;1.33;0.88;;;;;;;4.82;100.00;98086.13;4219232;27;20383;-72
2023/01/11 06:37:48;;;;;;;0.93;0.70;;;;;;;4.76;100.00;98087.50;4233445;27;20515;-72
2023/01/11 06:39:48;;;;;;;0.88;0.70;;;;;;;4.77;100.00;98091.84;4235081;27;20208;-72
2023/01/11 06:41:48;;;;;;;0.70;0.70;;;;;;;4.78;100.00;98094.22;4225785;27;20080;-72
2023/01/11 06:43:49;;;;;;;0.90;0.68;;;;;;;4.86;100.00;98088.94;4218692;27;20484;-72
2023/01/11 06:45:50;;;;;;;0.75;0.73;;;;;;;4.83;100.00;98086.91;4219146;27;20470;-72
2023/01/11 06:47:51;;;;;;;1.35;0.70;;;;;;;4.89;100.00;98083.59;4234523;27;20122;-72
2023/01/11 06:49:51;;;;;;;1.85;0.63;;;;;;;4.99;100.00;98083.06;4233875;27;20208;-72
2023/01/11 06:51:51;;;;;;;0.70;0.70;;;;;;;4.96;100.00;98086.50;4219063;27;20044;-72
2023/01/11 06:53:52;;;;;;;0.80;0.80;;;;;;;5.02;100.00;98076.88;4222861;27;20099;-72
2023/01/11 06:55:55;;;;;;;0.88;0.70;;;;;;;5.07;100.00;98076.63;4234317;27;20047;-72
2023/01/11 06:57:56;;;;;;;0.70;0.60;;;;;;;5.06;100.00;98088.75;4219171;28;20132;-72
2023/01/11 06:59:56;;;;;;;1.13;0.80;;;;;;;5.01;100.00;98072.53;4219303;27;20120;-72
2023/01/11 07:01:57;;;;;;;0.60;0.60;;;;;;;4.99;100.00;98077.59;4219695;27;20044;-72
2023/01/11 07:03:58;;;;;;;2.10;0.75;;;;;;;4.97;100.00;98063.44;4221486;27;20328;-72
2023/01/11 07:06:00;;;;;;;1.63;0.77;;;;;;;4.99;100.00;98069.38;4219187;27;20043;-72
2023/01/11 07:08:01;;;;;;;0.70;0.70;;;;;;;4.96;100.00;98061.81;4219797;27;20743;-72
2023/01/11 07:10:01;;;;;;;0.70;0.70;;;;;;;5.06;100.00;98069.56;4229881;27;20043;-72
2023/01/11 07:12:02;;;;;;;1.38;0.95;;;;;;;5.04;100.00;98063.59;4219376;27;20019;-72
2023/01/11 07:14:02;;;;;;;0.80;0.80;;;;;;;5.08;100.00;98071.94;4219095;27;20032;-72
2023/01/11 07:16:03;;;;;;;0.65;0.65;;;;;;;5.10;100.00;98071.59;4231937;27;20044;-72
2023/01/11 07:18:03;;;;;;;1.23;0.75;;;;;;;5.08;100.00;98064.50;4227059;27;20067;-72
2023/01/11 07:20:05;;;;;;;0.60;0.60;;;;;;;5.08;100.00;98058.22;4222300;27;20289;-72
2023/01/11 07:22:05;;;;;;;0.88;0.73;;;;;;;5.08;100.00;98064.50;4227091;27;20023;-72
2023/01/11 07:24:06;;;;;;;1.10;0.80;;;;;;;5.12;100.00;98052.81;4236425;27;20027;-72
2023/01/11 07:26:06;;;;;;;1.00;0.70;;;;;;;5.20;100.00;98060.88;4238829;27;20077;-72
2023/01/11 07:28:07;;;;;;;1.10;1.00;;;;;;;5.21;100.00;98054.28;4238096;27;20110;-72
2023/01/11 07:30:08;;;;;;;0.75;0.70;;;;;;;5.21;100.00;98057.03;4228264;27;20067;-72
2023/01/11 07:32:09;;;;;;;1.05;0.75;;;;;;;5.26;100.00;98075.94;4222882;27;20035;-72
2023/01/11 07:34:09;;;;;;;0.82;0.80;;;;;;;5.30;100.00;98062.34;4221564;27;20020;-72
2023/01/11 07:36:10;;;;;;;0.70;0.70;;;;;;;5.35;100.00;98062.84;4222299;27;20043;-72
2023/01/11 07:38:10;;;;;;;0.90;0.60;;;;;;;5.35;100.00;98057.34;4230689;27;20023;-72
2023/01/11 07:40:12;;;;;;;0.70;0.70;;;;;;;5.40;100.00;98055.50;4229364;27;20107;-72
2023/01/11 07:44:31;;;;;;;0.60;0.60;;;;;;;5.49;100.00;98056.13;4226864;27;20042;-72
2023/01/11 07:46:31;;;;;;;1.02;0.65;;;;;;;5.63;100.00;98060.03;4237741;27;20043;-72
2023/01/11 07:48:31;;;;;;;0.50;0.50;;;;;;;5.71;100.00;98069.22;4237934;27;20216;-72
2023/01/11 07:50:32;;;;;;;0.60;0.60;;;;;;;5.70;100.00;98051.13;4223418;27;20092;-72
2023/01/11 07:52:32;;;;;;;2.70;0.70;;;;;;;5.72;100.00;98070.81;4222045;27;20044;-72
2023/01/11 07:54:32;;;;;;;2.67;1.00;;;;;;;5.88;100.00;98068.84;4221740;27;20040;-72
2023/01/11 07:56:33;;;;;;;1.27;0.90;;;;;;;5.84;100.00;98062.47;4222371;27;20034;-72
2023/01/11 07:58:33;;;;;;;1.10;0.80;;;;;;;5.81;100.00;98063.19;4223050;27;20531;-72
2023/01/11 08:00:33;;;;;;;1.27;0.90;;;;;;;5.83;100.00;98071.06;4222151;27;20097;-72
2023/01/11 08:02:34;;;;;;;1.33;0.90;;;;;;;5.85;100.00;98066.00;4221154;27;20518;-72
2023/01/11 08:04:34;;;;;;;1.00;0.90;;;;;;;5.79;100.00;98064.69;4229842;27;20386;-72
2023/01/11 08:06:34;;;;;;;1.05;0.70;;;;;;;5.81;100.00;98076.91;4237626;27;20356;-72
2023/01/11 08:08:35;;;;;;;1.05;0.80;;;;;;;5.80;100.00;98055.31;4231730;27;20315;-72
2023/01/11 08:10:35;;;;;;;1.10;0.52;;;;;;;5.81;100.00;98060.44;4221871;27;20158;-72
2023/01/11 08:15:05;;;;;;;2.92;1.70;;;;;;;5.99;100.00;98052.63;4221762;27;20433;-72
2023/01/11 08:17:07;;;;;;;4.10;1.45;;;;;;;5.94;100.00;98047.41;4221545;27;20042;-72
2023/01/11 08:19:08;;;;;;;4.72;2.42;;;;;;;5.93;100.00;98043.06;4231541;27;20035;-72
2023/01/11 08:21:08;;;;;;;1.90;1.35;;;;;;;5.94;100.00;98036.44;4227340;27;20403;-72
2023/01/11 08:23:09;;;;;;;2.10;1.10;;;;;;;5.99;100.00;98049.09;4221186;27;20335;-72
2023/01/11 08:25:10;;;;;;;2.90;0.98;;;;;;;5.98;100.00;98042.00;4221914;27;20050;-72
2023/01/11 08:27:10;;;;;;;2.75;0.95;;;;;;;6.01;100.00;98031.09;4221756;27;20043;-72
2023/01/11 08:29:10;;;;;;;3.35;1.02;;;;;;;6.05;100.00;98053.97;4223574;27;20051;-72
2023/01/11 08:31:11;;;;;;;0.47;0.47;;;;;;;6.11;100.00;98032.47;4221098;27;20455;-72
2023/01/11 08:33:11;;;;;;;0.40;0.40;;;;;;;6.14;100.00;98048.25;4220894;27;20080;-72
2023/01/11 08:35:12;;;;;;;3.05;0.60;;;;;;;6.20;100.00;98047.59;4221891;27;20155;-72
2023/01/11 08:37:13;;;;;;;0.82;0.70;;;;;;;6.25;100.00;98045.75;4221777;27;20028;-72
2023/01/11 08:39:13;;;;;;;2.42;0.80;;;;;;;6.22;100.00;98046.47;4221567;27;20044;-72
2023/01/11 08:41:14;;;;;;;0.70;0.60;;;;;;;6.20;100.00;98057.78;4224310;27;20043;-72
2023/01/11 08:43:14;;;;;;;0.40;0.40;;;;;;;6.18;100.00;98058.16;4225686;27;20047;-72
2023/01/11 08:45:14;;;;;;;1.40;0.50;;;;;;;6.20;100.00;98053.09;4222792;27;20461;-72
2023/01/11 08:47:15;;;;;;;2.10;0.50;;;;;;;6.19;100.00;98058.94;4220788;27;20042;-72
2023/01/11 08:49:15;;;;;;;0.85;0.60;;;;;;;6.25;100.00;98056.72;4230615;27;20101;-72
2023/01/11 08:51:17;;;;;;;0.45;0.45;;;;;;;6.26;100.00;98058.31;4236068;27;20383;-72
2023/01/11 08:53:19;;;;;;;0.70;0.50;;;;;;;6.26;100.00;98066.56;4236916;27;20031;-72
2023/01/11 08:55:19;;;;;;;0.50;0.50;;;;;;;6.25;100.00;98057.53;4236414;27;20286;-72
2023/01/11 08:57:19;;;;;;;0.50;0.50;;;;;;;6.24;100.00;98071.63;4229358;27;20043;-72
2023/01/11 08:59:21;;;;;;;0.47;0.47;;;;;;;6.25;100.00;98062.22;4224671;27;20209;-72
2023/01/11 09:01:21;;;;;;;0.70;0.70;;;;;;;6.29;100.00;98066.66;4225451;27;20059;-72
2023/01/11 09:03:21;;;;;;;0.60;0.60;;;;;;;6.31;100.00;98058.84;4235543;27;20709;-72
2023/01/11 09:05:23;;;;;;;1.27;0.88;;;;;;;6.33;100.00;98064.75;4224553;27;20047;-72
2023/01/11 09:07:24;;;;;;;0.73;0.60;;;;;;;6.30;100.00;98049.00;4233705;27;20129;-72
2023/01/11 09:09:24;;;;;;;2.15;1.20;;;;;;;6.37;100.00;98053.84;4236181;27;20066;-72
2023/01/11 09:13:43;;;;;;;3.45;1.85;;;;;;;6.53;100.00;98054.56;4233879;27;20050;-72
2023/01/11 09:15:46;;;;;;;1.55;1.20;;;;;;;6.52;100.00;98052.97;4229936;27;20225;-72
2023/01/11 09:17:47;;;;;;;20.73;2.65;;;;;;;6.48;100.00;98046.63;4221121;27;20047;-73
2023/01/11 09:19:48;;;;;;;4.25;2.00;;;;;;;6.48;100.00;98041.94;4225417;27;20349;-73
2023/01/11 09:21:50;;;;;;;1.95;0.93;;;;;;;6.48;100.00;98052.13;4235615;27;20046;-72
2023/01/11 09:23:50;;;;;;;2.58;0.70;;;;;;;6.53;100.00;98054.56;4236847;27;20070;-72
2023/01/11 09:25:50;;;;;;;1.70;1.08;;;;;;;6.57;100.00;98058.19;4221722;27;20043;-73
2023/01/11 09:27:51;;;;;;;0.70;0.68;;;;;;;6.64;100.00;98052.06;4220800;27;20226;-73
2023/01/11 09:29:51;;;;;;;0.80;0.77;;;;;;;6.76;100.00;98049.94;4223412;27;20065;-73
2023/01/11 09:31:52;;;;;;;1.30;0.70;;;;;;;6.74;100.00;98054.22;4227524;27;20032;-73
2023/01/11 09:33:52;;;;;;;0.50;0.50;;;;;;;6.83;100.00;98056.75;4219945;27;20460;-73
2023/01/11 09:35:55;;;;;;;0.60;0.60;;;;;;;6.81;100.00;98059.06;4220629;27;20066;-73
2023/01/11 09:37:57;;;;;;;0.65;0.57;;;;;;;6.75;100.00;98055.81;4220388;27;20130;-73
2023/01/11 09:40:00;;;;;;;0.50;0.50;;;;;;;6.75;100.00;98051.09;4221450;27;20047;-73
2023/01/11 09:42:31;;;;;;;0.60;0.60;;;;;;;6.63;100.00;98065.00;4220627;27;20036;-73
2023/01/11 09:44:40;;;;;;;0.60;0.60;;;;;;;6.64;100.00;98043.81;4219224;27;20040;-73
2023/01/11 09:46:46;;;;;;;0.52;0.50;;;;;;;6.63;100.00;98042.22;4220772;27;20043;-73
2023/01/11 09:48:52;;;;;;;0.70;0.55;;;;;;;6.75;100.00;98042.84;4220671;27;20040;-73
2023/01/11 09:50:52;;;;;;;0.60;0.60;;;;;;;6.75;100.00;98055.81;4220338;27;20043;-72
2023/01/11 09:52:57;;;;;;;0.63;0.57;;;;;;;6.78;100.00;98043.28;4219883;27;20062;-73
2023/01/11 09:54:58;;;;;;;0.50;0.50;;;;;;;6.81;100.00;98051.59;4220304;27;20044;-73
2023/01/11 09:57:06;;;;;;;0.40;0.40;;;;;;;6.84;100.00;98047.31;4220307;27;20039;-73
2023/01/11 09:59:19;;;;;;;0.40;0.40;;;;;;;6.78;100.00;98054.28;4219864;27;20605;-73
2023/01/11 10:01:37;;;;;;;3.20;0.45;;;;;;;6.79;100.00;98031.16;4220214;27;20096;-73